<?xml version="1.0" encoding="UTF-8"?>
<gpx xmlns="http://www.topografix.com/GPX/1/1" xmlns:xsi="http://www.w3.org/2001/XMLSchema-instance" version="1.1" xsi:schemaLocation="http://www.topografix.com/GPX/1/1 http://www.topografix.com/GPX/1/1/gpx.xsd">
  <metadata>
    <name>Innsbrook Triathlon 2023 - Sprint Aquabike</name>
  </metadata>
  <trk>
    <name>Innsbrook Triathlon 2023 - Sprint Aquabike</name>
    <trkseg>
      <trkpt lat="38.749409" lon="-91.083376">
        <ele>197.528352</ele>
        <time>2024-06-08T07:15:00.000Z</time>
      </trkpt>
      <trkpt lat="38.748921" lon="-91.080943">
        <ele>199.694892</ele>
        <time>2024-06-08T07:15:22.000Z</time>
      </trkpt>
      <trkpt lat="38.748531" lon="-91.078853">
        <ele>204.570368</ele>
        <time>2024-06-08T07:15:41.000Z</time>
      </trkpt>
      <trkpt lat="38.748524" lon="-91.078595">
        <ele>205.32</ele>
        <time>2024-06-08T07:15:43.000Z</time>
      </trkpt>
      <trkpt lat="38.748577" lon="-91.078268">
        <ele>206.225019</ele>
        <time>2024-06-08T07:15:46.000Z</time>
      </trkpt>
      <trkpt lat="38.748768" lon="-91.077996">
        <ele>207.238663</ele>
        <time>2024-06-08T07:15:49.000Z</time>
      </trkpt>
      <trkpt lat="38.748869" lon="-91.077554">
        <ele>208.068346</ele>
        <time>2024-06-08T07:15:53.000Z</time>
      </trkpt>
      <trkpt lat="38.748878" lon="-91.077374">
        <ele>208.2826</ele>
        <time>2024-06-08T07:15:55.000Z</time>
      </trkpt>
      <trkpt lat="38.748746" lon="-91.076794">
        <ele>209.035114</ele>
        <time>2024-06-08T07:16:00.000Z</time>
      </trkpt>
      <trkpt lat="38.748715" lon="-91.076418">
        <ele>209.521056</ele>
        <time>2024-06-08T07:16:03.000Z</time>
      </trkpt>
      <trkpt lat="38.748812" lon="-91.076145">
        <ele>209.890666</ele>
        <time>2024-06-08T07:16:06.000Z</time>
      </trkpt>
      <trkpt lat="38.74926" lon="-91.075811">
        <ele>210.443742</ele>
        <time>2024-06-08T07:16:12.000Z</time>
      </trkpt>
      <trkpt lat="38.749586" lon="-91.075659">
        <ele>210.082849</ele>
        <time>2024-06-08T07:16:16.000Z</time>
      </trkpt>
      <trkpt lat="38.749741" lon="-91.075535">
        <ele>209.885075</ele>
        <time>2024-06-08T07:16:18.000Z</time>
      </trkpt>
      <trkpt lat="38.749905" lon="-91.075317">
        <ele>209.639943</ele>
        <time>2024-06-08T07:16:21.000Z</time>
      </trkpt>
      <trkpt lat="38.749975" lon="-91.075182">
        <ele>209.492457</ele>
        <time>2024-06-08T07:16:22.000Z</time>
      </trkpt>
      <trkpt lat="38.750068" lon="-91.074931">
        <ele>209.267769</ele>
        <time>2024-06-08T07:16:24.000Z</time>
      </trkpt>
      <trkpt lat="38.750208" lon="-91.074619">
        <ele>208.971576</ele>
        <time>2024-06-08T07:16:27.000Z</time>
      </trkpt>
      <trkpt lat="38.750289" lon="-91.074483">
        <ele>208.831441</ele>
        <time>2024-06-08T07:16:28.000Z</time>
      </trkpt>
      <trkpt lat="38.75057" lon="-91.074243">
        <ele>208.890254</ele>
        <time>2024-06-08T07:16:32.000Z</time>
      </trkpt>
      <trkpt lat="38.751066" lon="-91.073864">
        <ele>209.780058</ele>
        <time>2024-06-08T07:16:38.000Z</time>
      </trkpt>
      <trkpt lat="38.751326" lon="-91.073692">
        <ele>210.231055</ele>
        <time>2024-06-08T07:16:41.000Z</time>
      </trkpt>
      <trkpt lat="38.751604" lon="-91.07369">
        <ele>210.652729</ele>
        <time>2024-06-08T07:16:44.000Z</time>
      </trkpt>
      <trkpt lat="38.751954" lon="-91.073797">
        <ele>211.187067</ele>
        <time>2024-06-08T07:16:48.000Z</time>
      </trkpt>
      <trkpt lat="38.752169" lon="-91.073839">
        <ele>211.764234</ele>
        <time>2024-06-08T07:16:50.000Z</time>
      </trkpt>
      <trkpt lat="38.752304" lon="-91.073856">
        <ele>212.269707</ele>
        <time>2024-06-08T07:16:52.000Z</time>
      </trkpt>
      <trkpt lat="38.753153" lon="-91.073657">
        <ele>215.58388</ele>
        <time>2024-06-08T07:17:02.000Z</time>
      </trkpt>
      <trkpt lat="38.753473" lon="-91.073497">
        <ele>216.927956</ele>
        <time>2024-06-08T07:17:06.000Z</time>
      </trkpt>
      <trkpt lat="38.75362" lon="-91.073472">
        <ele>217.477378</ele>
        <time>2024-06-08T07:17:08.000Z</time>
      </trkpt>
      <trkpt lat="38.753871" lon="-91.073373">
        <ele>218.393385</ele>
        <time>2024-06-08T07:17:11.000Z</time>
      </trkpt>
      <trkpt lat="38.753954" lon="-91.072983">
        <ele>219.038754</ele>
        <time>2024-06-08T07:17:15.000Z</time>
      </trkpt>
      <trkpt lat="38.754088" lon="-91.072761">
        <ele>219.479835</ele>
        <time>2024-06-08T07:17:17.000Z</time>
      </trkpt>
      <trkpt lat="38.754192" lon="-91.072688">
        <ele>219.74185</ele>
        <time>2024-06-08T07:17:18.000Z</time>
      </trkpt>
      <trkpt lat="38.754703" lon="-91.072475">
        <ele>220.817282</ele>
        <time>2024-06-08T07:17:24.000Z</time>
      </trkpt>
      <trkpt lat="38.755027" lon="-91.072291">
        <ele>221.526456</ele>
        <time>2024-06-08T07:17:28.000Z</time>
      </trkpt>
      <trkpt lat="38.755543" lon="-91.071979">
        <ele>222.451621</ele>
        <time>2024-06-08T07:17:34.000Z</time>
      </trkpt>
      <trkpt lat="38.755655" lon="-91.071942">
        <ele>222.605219</ele>
        <time>2024-06-08T07:17:35.000Z</time>
      </trkpt>
      <trkpt lat="38.755963" lon="-91.072025">
        <ele>223.039486</ele>
        <time>2024-06-08T07:17:38.000Z</time>
      </trkpt>
      <trkpt lat="38.756117" lon="-91.071963">
        <ele>223.257588</ele>
        <time>2024-06-08T07:17:40.000Z</time>
      </trkpt>
      <trkpt lat="38.756183" lon="-91.071895">
        <ele>223.357452</ele>
        <time>2024-06-08T07:17:41.000Z</time>
      </trkpt>
      <trkpt lat="38.756489" lon="-91.071118">
        <ele>224.282861</ele>
        <time>2024-06-08T07:17:49.000Z</time>
      </trkpt>
      <trkpt lat="38.756603" lon="-91.070886">
        <ele>224.651893</ele>
        <time>2024-06-08T07:17:51.000Z</time>
      </trkpt>
      <trkpt lat="38.756748" lon="-91.070748">
        <ele>224.974832</ele>
        <time>2024-06-08T07:17:53.000Z</time>
      </trkpt>
      <trkpt lat="38.757005" lon="-91.070609">
        <ele>225.499917</ele>
        <time>2024-06-08T07:17:56.000Z</time>
      </trkpt>
      <trkpt lat="38.757215" lon="-91.070548">
        <ele>225.872103</ele>
        <time>2024-06-08T07:17:58.000Z</time>
      </trkpt>
      <trkpt lat="38.757676" lon="-91.070514">
        <ele>226.727716</ele>
        <time>2024-06-08T07:18:03.000Z</time>
      </trkpt>
      <trkpt lat="38.758028" lon="-91.070403">
        <ele>227.382342</ele>
        <time>2024-06-08T07:18:07.000Z</time>
      </trkpt>
      <trkpt lat="38.759067" lon="-91.069927">
        <ele>229.245476</ele>
        <time>2024-06-08T07:18:19.000Z</time>
      </trkpt>
      <trkpt lat="38.759102" lon="-91.069307">
        <ele>230.052646</ele>
        <time>2024-06-08T07:18:24.000Z</time>
      </trkpt>
      <trkpt lat="38.759095" lon="-91.06904">
        <ele>230.388291</ele>
        <time>2024-06-08T07:18:26.000Z</time>
      </trkpt>
      <trkpt lat="38.758975" lon="-91.068587">
        <ele>230.988763</ele>
        <time>2024-06-08T07:18:30.000Z</time>
      </trkpt>
      <trkpt lat="38.758768" lon="-91.068049">
        <ele>231.679512</ele>
        <time>2024-06-08T07:18:35.000Z</time>
      </trkpt>
      <trkpt lat="38.758824" lon="-91.067472">
        <ele>232.365976</ele>
        <time>2024-06-08T07:18:40.000Z</time>
      </trkpt>
      <trkpt lat="38.758876" lon="-91.067114">
        <ele>232.78191</ele>
        <time>2024-06-08T07:18:43.000Z</time>
      </trkpt>
      <trkpt lat="38.758957" lon="-91.066804">
        <ele>233.173443</ele>
        <time>2024-06-08T07:18:46.000Z</time>
      </trkpt>
      <trkpt lat="38.759163" lon="-91.066649">
        <ele>233.430475</ele>
        <time>2024-06-08T07:18:49.000Z</time>
      </trkpt>
      <trkpt lat="38.759652" lon="-91.066451">
        <ele>233.772172</ele>
        <time>2024-06-08T07:18:55.000Z</time>
      </trkpt>
      <trkpt lat="38.759816" lon="-91.066425">
        <ele>233.886403</ele>
        <time>2024-06-08T07:18:57.000Z</time>
      </trkpt>
      <trkpt lat="38.75993" lon="-91.066353">
        <ele>233.973765</ele>
        <time>2024-06-08T07:18:58.000Z</time>
      </trkpt>
      <trkpt lat="38.760032" lon="-91.066251">
        <ele>234.060834</ele>
        <time>2024-06-08T07:18:59.000Z</time>
      </trkpt>
      <trkpt lat="38.760077" lon="-91.066161">
        <ele>234.121478</ele>
        <time>2024-06-08T07:19:00.000Z</time>
      </trkpt>
      <trkpt lat="38.760069" lon="-91.066061">
        <ele>234.175992</ele>
        <time>2024-06-08T07:19:01.000Z</time>
      </trkpt>
      <trkpt lat="38.76088" lon="-91.066246">
        <ele>234.524865</ele>
        <time>2024-06-08T07:19:10.000Z</time>
      </trkpt>
      <trkpt lat="38.761977" lon="-91.066431">
        <ele>234.269836</ele>
        <time>2024-06-08T07:19:22.000Z</time>
      </trkpt>
      <trkpt lat="38.762357" lon="-91.066591">
        <ele>234.176555</ele>
        <time>2024-06-08T07:19:26.000Z</time>
      </trkpt>
      <trkpt lat="38.762831" lon="-91.066721">
        <ele>233.941632</ele>
        <time>2024-06-08T07:19:31.000Z</time>
      </trkpt>
      <trkpt lat="38.763258" lon="-91.066726">
        <ele>233.725782</ele>
        <time>2024-06-08T07:19:36.000Z</time>
      </trkpt>
      <trkpt lat="38.763744" lon="-91.066602">
        <ele>233.476102</ele>
        <time>2024-06-08T07:19:42.000Z</time>
      </trkpt>
      <trkpt lat="38.764186" lon="-91.066331">
        <ele>233.262525</ele>
        <time>2024-06-08T07:19:47.000Z</time>
      </trkpt>
      <trkpt lat="38.764378" lon="-91.06617">
        <ele>233.365721</ele>
        <time>2024-06-08T07:19:50.000Z</time>
      </trkpt>
      <trkpt lat="38.764791" lon="-91.065691">
        <ele>233.616446</ele>
        <time>2024-06-08T07:19:56.000Z</time>
      </trkpt>
      <trkpt lat="38.765393" lon="-91.064861">
        <ele>234.019429</ele>
        <time>2024-06-08T07:20:06.000Z</time>
      </trkpt>
      <trkpt lat="38.765562" lon="-91.064694">
        <ele>234.212239</ele>
        <time>2024-06-08T07:20:08.000Z</time>
      </trkpt>
      <trkpt lat="38.76573" lon="-91.064535">
        <ele>234.471425</ele>
        <time>2024-06-08T07:20:10.000Z</time>
      </trkpt>
      <trkpt lat="38.765958" lon="-91.064422">
        <ele>234.785674</ele>
        <time>2024-06-08T07:20:13.000Z</time>
      </trkpt>
      <trkpt lat="38.766372" lon="-91.06433">
        <ele>235.304446</ele>
        <time>2024-06-08T07:20:18.000Z</time>
      </trkpt>
      <trkpt lat="38.767031" lon="-91.064305">
        <ele>236.132302</ele>
        <time>2024-06-08T07:20:25.000Z</time>
      </trkpt>
      <trkpt lat="38.767413" lon="-91.0644">
        <ele>236.416568</ele>
        <time>2024-06-08T07:20:29.000Z</time>
      </trkpt>
      <trkpt lat="38.768159" lon="-91.064681">
        <ele>236.717183</ele>
        <time>2024-06-08T07:20:38.000Z</time>
      </trkpt>
      <trkpt lat="38.768685" lon="-91.064798">
        <ele>236.91846</ele>
        <time>2024-06-08T07:20:44.000Z</time>
      </trkpt>
      <trkpt lat="38.768934" lon="-91.064713">
        <ele>236.995824</ele>
        <time>2024-06-08T07:20:47.000Z</time>
      </trkpt>
      <trkpt lat="38.769963" lon="-91.063955">
        <ele>236.008921</ele>
        <time>2024-06-08T07:21:00.000Z</time>
      </trkpt>
      <trkpt lat="38.770188" lon="-91.06383">
        <ele>235.805518</ele>
        <time>2024-06-08T07:21:03.000Z</time>
      </trkpt>
      <trkpt lat="38.770377" lon="-91.063746">
        <ele>235.6251</ele>
        <time>2024-06-08T07:21:05.000Z</time>
      </trkpt>
      <trkpt lat="38.770613" lon="-91.063718">
        <ele>235.398223</ele>
        <time>2024-06-08T07:21:08.000Z</time>
      </trkpt>
      <trkpt lat="38.771108" lon="-91.063755">
        <ele>234.736034</ele>
        <time>2024-06-08T07:21:14.000Z</time>
      </trkpt>
      <trkpt lat="38.771228" lon="-91.063789">
        <ele>234.582371</ele>
        <time>2024-06-08T07:21:15.000Z</time>
      </trkpt>
      <trkpt lat="38.771409" lon="-91.063881">
        <ele>234.333933</ele>
        <time>2024-06-08T07:21:17.000Z</time>
      </trkpt>
      <trkpt lat="38.771786" lon="-91.064071">
        <ele>233.788045</ele>
        <time>2024-06-08T07:21:22.000Z</time>
      </trkpt>
      <trkpt lat="38.772075" lon="-91.064101">
        <ele>233.416946</ele>
        <time>2024-06-08T07:21:25.000Z</time>
      </trkpt>
      <trkpt lat="38.772351" lon="-91.064084">
        <ele>233.146615</ele>
        <time>2024-06-08T07:21:28.000Z</time>
      </trkpt>
      <trkpt lat="38.772928" lon="-91.063952">
        <ele>233.071514</ele>
        <time>2024-06-08T07:21:35.000Z</time>
      </trkpt>
      <trkpt lat="38.773263" lon="-91.063924">
        <ele>233.028602</ele>
        <time>2024-06-08T07:21:39.000Z</time>
      </trkpt>
      <trkpt lat="38.773454" lon="-91.063983">
        <ele>233.003844</ele>
        <time>2024-06-08T07:21:41.000Z</time>
      </trkpt>
      <trkpt lat="38.773846" lon="-91.064193">
        <ele>232.948318</ele>
        <time>2024-06-08T07:21:46.000Z</time>
      </trkpt>
      <trkpt lat="38.774062" lon="-91.064459">
        <ele>232.961637</ele>
        <time>2024-06-08T07:21:49.000Z</time>
      </trkpt>
      <trkpt lat="38.774322" lon="-91.064954">
        <ele>233.110165</ele>
        <time>2024-06-08T07:21:54.000Z</time>
      </trkpt>
      <trkpt lat="38.774544" lon="-91.065199">
        <ele>233.198123</ele>
        <time>2024-06-08T07:21:57.000Z</time>
      </trkpt>
      <trkpt lat="38.775097" lon="-91.065582">
        <ele>233.395681</ele>
        <time>2024-06-08T07:22:04.000Z</time>
      </trkpt>
      <trkpt lat="38.775611" lon="-91.065758">
        <ele>233.740771</ele>
        <time>2024-06-08T07:22:10.000Z</time>
      </trkpt>
      <trkpt lat="38.775905" lon="-91.065778">
        <ele>234.057278</ele>
        <time>2024-06-08T07:22:13.000Z</time>
      </trkpt>
      <trkpt lat="38.776207" lon="-91.065711">
        <ele>234.371024</ele>
        <time>2024-06-08T07:22:16.000Z</time>
      </trkpt>
      <trkpt lat="38.777254" lon="-91.065197">
        <ele>235.621663</ele>
        <time>2024-06-08T07:22:28.000Z</time>
      </trkpt>
      <trkpt lat="38.777483" lon="-91.065118">
        <ele>235.96289</ele>
        <time>2024-06-08T07:22:31.000Z</time>
      </trkpt>
      <trkpt lat="38.777816" lon="-91.065087">
        <ele>236.472794</ele>
        <time>2024-06-08T07:22:35.000Z</time>
      </trkpt>
      <trkpt lat="38.77803" lon="-91.065186">
        <ele>236.809184</ele>
        <time>2024-06-08T07:22:38.000Z</time>
      </trkpt>
      <trkpt lat="38.77833" lon="-91.065409">
        <ele>237.309529</ele>
        <time>2024-06-08T07:22:42.000Z</time>
      </trkpt>
      <trkpt lat="38.778774" lon="-91.065981">
        <ele>238.03531</ele>
        <time>2024-06-08T07:22:49.000Z</time>
      </trkpt>
      <trkpt lat="38.779129" lon="-91.066347">
        <ele>238.021104</ele>
        <time>2024-06-08T07:22:54.000Z</time>
      </trkpt>
      <trkpt lat="38.779326" lon="-91.066541">
        <ele>238.013283</ele>
        <time>2024-06-08T07:22:57.000Z</time>
      </trkpt>
      <trkpt lat="38.779669" lon="-91.066778">
        <ele>238.000966</ele>
        <time>2024-06-08T07:23:01.000Z</time>
      </trkpt>
      <trkpt lat="38.779937" lon="-91.066862">
        <ele>237.99273</ele>
        <time>2024-06-08T07:23:04.000Z</time>
      </trkpt>
      <trkpt lat="38.780401" lon="-91.066902">
        <ele>237.954385</ele>
        <time>2024-06-08T07:23:09.000Z</time>
      </trkpt>
      <trkpt lat="38.780797" lon="-91.066759">
        <ele>237.889226</ele>
        <time>2024-06-08T07:23:14.000Z</time>
      </trkpt>
      <trkpt lat="38.781199" lon="-91.066735">
        <ele>237.824882</ele>
        <time>2024-06-08T07:23:18.000Z</time>
      </trkpt>
      <trkpt lat="38.781513" lon="-91.066844">
        <ele>237.775757</ele>
        <time>2024-06-08T07:23:22.000Z</time>
      </trkpt>
      <trkpt lat="38.781586" lon="-91.066907">
        <ele>237.760767</ele>
        <time>2024-06-08T07:23:23.000Z</time>
      </trkpt>
      <trkpt lat="38.781767" lon="-91.067021">
        <ele>237.729768</ele>
        <time>2024-06-08T07:23:25.000Z</time>
      </trkpt>
      <trkpt lat="38.782077" lon="-91.067353">
        <ele>237.911992</ele>
        <time>2024-06-08T07:23:29.000Z</time>
      </trkpt>
      <trkpt lat="38.782282" lon="-91.067509">
        <ele>238.149955</ele>
        <time>2024-06-08T07:23:32.000Z</time>
      </trkpt>
      <trkpt lat="38.782657" lon="-91.067592">
        <ele>238.544452</ele>
        <time>2024-06-08T07:23:36.000Z</time>
      </trkpt>
      <trkpt lat="38.782869" lon="-91.067596">
        <ele>238.759804</ele>
        <time>2024-06-08T07:23:38.000Z</time>
      </trkpt>
      <trkpt lat="38.78404" lon="-91.067481">
        <ele>240.19628</ele>
        <time>2024-06-08T07:23:51.000Z</time>
      </trkpt>
      <trkpt lat="38.784281" lon="-91.067442">
        <ele>240.604083</ele>
        <time>2024-06-08T07:23:54.000Z</time>
      </trkpt>
      <trkpt lat="38.784579" lon="-91.067419">
        <ele>241.082603</ele>
        <time>2024-06-08T07:23:57.000Z</time>
      </trkpt>
      <trkpt lat="38.785978" lon="-91.067233">
        <ele>243.206285</ele>
        <time>2024-06-08T07:24:13.000Z</time>
      </trkpt>
      <trkpt lat="38.786444" lon="-91.067279">
        <ele>243.827028</ele>
        <time>2024-06-08T07:24:18.000Z</time>
      </trkpt>
      <trkpt lat="38.786694" lon="-91.067372">
        <ele>244.173074</ele>
        <time>2024-06-08T07:24:21.000Z</time>
      </trkpt>
      <trkpt lat="38.78692" lon="-91.067498">
        <ele>244.486572</ele>
        <time>2024-06-08T07:24:24.000Z</time>
      </trkpt>
      <trkpt lat="38.787438" lon="-91.067929">
        <ele>245.353282</ele>
        <time>2024-06-08T07:24:31.000Z</time>
      </trkpt>
      <trkpt lat="38.787607" lon="-91.068124">
        <ele>245.666564</ele>
        <time>2024-06-08T07:24:34.000Z</time>
      </trkpt>
      <trkpt lat="38.787763" lon="-91.068412">
        <ele>246.058172</ele>
        <time>2024-06-08T07:24:37.000Z</time>
      </trkpt>
      <trkpt lat="38.787867" lon="-91.068778">
        <ele>246.489181</ele>
        <time>2024-06-08T07:24:40.000Z</time>
      </trkpt>
      <trkpt lat="38.787903" lon="-91.069581">
        <ele>247.384175</ele>
        <time>2024-06-08T07:24:47.000Z</time>
      </trkpt>
      <trkpt lat="38.787956" lon="-91.06973">
        <ele>247.517079</ele>
        <time>2024-06-08T07:24:48.000Z</time>
      </trkpt>
      <trkpt lat="38.788018" lon="-91.069854">
        <ele>247.621771</ele>
        <time>2024-06-08T07:24:49.000Z</time>
      </trkpt>
      <trkpt lat="38.788316" lon="-91.070296">
        <ele>248.028626</ele>
        <time>2024-06-08T07:24:54.000Z</time>
      </trkpt>
      <trkpt lat="38.788871" lon="-91.070613">
        <ele>248.586306</ele>
        <time>2024-06-08T07:25:01.000Z</time>
      </trkpt>
      <trkpt lat="38.790799" lon="-91.07178">
        <ele>250.055499</ele>
        <time>2024-06-08T07:25:25.000Z</time>
      </trkpt>
      <trkpt lat="38.791927" lon="-91.07244">
        <ele>251.307529</ele>
        <time>2024-06-08T07:25:39.000Z</time>
      </trkpt>
      <trkpt lat="38.792583" lon="-91.072855">
        <ele>252.106928</ele>
        <time>2024-06-08T07:25:47.000Z</time>
      </trkpt>
      <trkpt lat="38.793052" lon="-91.073113">
        <ele>252.66578</ele>
        <time>2024-06-08T07:25:53.000Z</time>
      </trkpt>
      <trkpt lat="38.793505" lon="-91.073396">
        <ele>253.234321</ele>
        <time>2024-06-08T07:25:59.000Z</time>
      </trkpt>
      <trkpt lat="38.794316" lon="-91.073885">
        <ele>254.177255</ele>
        <time>2024-06-08T07:26:09.000Z</time>
      </trkpt>
      <trkpt lat="38.794634" lon="-91.074039">
        <ele>254.360112</ele>
        <time>2024-06-08T07:26:13.000Z</time>
      </trkpt>
      <trkpt lat="38.795206" lon="-91.074393">
        <ele>254.693081</ele>
        <time>2024-06-08T07:26:20.000Z</time>
      </trkpt>
      <trkpt lat="38.795507" lon="-91.074531">
        <ele>254.856615</ele>
        <time>2024-06-08T07:26:24.000Z</time>
      </trkpt>
      <trkpt lat="38.795637" lon="-91.074611">
        <ele>254.930581</ele>
        <time>2024-06-08T07:26:26.000Z</time>
      </trkpt>
      <trkpt lat="38.795739" lon="-91.074658">
        <ele>254.99582</ele>
        <time>2024-06-08T07:26:27.000Z</time>
      </trkpt>
      <trkpt lat="38.796087" lon="-91.074778">
        <ele>255.075562</ele>
        <time>2024-06-08T07:26:31.000Z</time>
      </trkpt>
      <trkpt lat="38.796321" lon="-91.074816">
        <ele>255.080498</ele>
        <time>2024-06-08T07:26:34.000Z</time>
      </trkpt>
      <trkpt lat="38.797438" lon="-91.074777">
        <ele>255.105372</ele>
        <time>2024-06-08T07:26:46.000Z</time>
      </trkpt>
      <trkpt lat="38.797499" lon="-91.074765">
        <ele>255.107024</ele>
        <time>2024-06-08T07:26:47.000Z</time>
      </trkpt>
      <trkpt lat="38.798166" lon="-91.074745">
        <ele>255.093988</ele>
        <time>2024-06-08T07:26:54.000Z</time>
      </trkpt>
      <trkpt lat="38.798326" lon="-91.074751">
        <ele>255.088652</ele>
        <time>2024-06-08T07:26:56.000Z</time>
      </trkpt>
      <trkpt lat="38.798415" lon="-91.074748">
        <ele>255.085702</ele>
        <time>2024-06-08T07:26:57.000Z</time>
      </trkpt>
      <trkpt lat="38.799249" lon="-91.07472">
        <ele>255.057372</ele>
        <time>2024-06-08T07:27:06.000Z</time>
      </trkpt>
      <trkpt lat="38.799323" lon="-91.074719">
        <ele>255.0549</ele>
        <time>2024-06-08T07:27:07.000Z</time>
      </trkpt>
      <trkpt lat="38.799917" lon="-91.074726">
        <ele>254.613768</ele>
        <time>2024-06-08T07:27:14.000Z</time>
      </trkpt>
      <trkpt lat="38.800722" lon="-91.074715">
        <ele>253.813147</ele>
        <time>2024-06-08T07:27:23.000Z</time>
      </trkpt>
      <trkpt lat="38.801292" lon="-91.074688">
        <ele>253.235372</ele>
        <time>2024-06-08T07:27:29.000Z</time>
      </trkpt>
      <trkpt lat="38.802106" lon="-91.074669">
        <ele>251.841993</ele>
        <time>2024-06-08T07:27:38.000Z</time>
      </trkpt>
      <trkpt lat="38.803014" lon="-91.074654">
        <ele>250.298281</ele>
        <time>2024-06-08T07:27:48.000Z</time>
      </trkpt>
      <trkpt lat="38.803363" lon="-91.074633">
        <ele>250.09485</ele>
        <time>2024-06-08T07:27:52.000Z</time>
      </trkpt>
      <trkpt lat="38.803902" lon="-91.074628">
        <ele>249.917143</ele>
        <time>2024-06-08T07:27:58.000Z</time>
      </trkpt>
      <trkpt lat="38.804029" lon="-91.074617">
        <ele>249.878085</ele>
        <time>2024-06-08T07:27:59.000Z</time>
      </trkpt>
      <trkpt lat="38.804929" lon="-91.074606">
        <ele>249.642025</ele>
        <time>2024-06-08T07:28:09.000Z</time>
      </trkpt>
      <trkpt lat="38.805489" lon="-91.074592">
        <ele>250.044716</ele>
        <time>2024-06-08T07:28:15.000Z</time>
      </trkpt>
      <trkpt lat="38.806613" lon="-91.07455">
        <ele>250.831341</ele>
        <time>2024-06-08T07:28:28.000Z</time>
      </trkpt>
      <trkpt lat="38.807278" lon="-91.074444">
        <ele>250.22005</ele>
        <time>2024-06-08T07:28:35.000Z</time>
      </trkpt>
      <trkpt lat="38.814287" lon="-91.074284">
        <ele>242.053592</ele>
        <time>2024-06-08T07:29:53.000Z</time>
      </trkpt>
      <trkpt lat="38.8154" lon="-91.074286">
        <ele>239.733614</ele>
        <time>2024-06-08T07:30:05.000Z</time>
      </trkpt>
      <trkpt lat="38.815939" lon="-91.074271">
        <ele>239.050079</ele>
        <time>2024-06-08T07:30:11.000Z</time>
      </trkpt>
      <trkpt lat="38.817469" lon="-91.074248">
        <ele>238.214126</ele>
        <time>2024-06-08T07:30:28.000Z</time>
      </trkpt>
      <trkpt lat="38.81789" lon="-91.074244">
        <ele>239.177599</ele>
        <time>2024-06-08T07:30:33.000Z</time>
      </trkpt>
      <trkpt lat="38.819357" lon="-91.074186">
        <ele>242.453506</ele>
        <time>2024-06-08T07:30:49.000Z</time>
      </trkpt>
      <trkpt lat="38.82012" lon="-91.074108">
        <ele>243.758637</ele>
        <time>2024-06-08T07:30:58.000Z</time>
      </trkpt>
      <trkpt lat="38.820945" lon="-91.074054">
        <ele>245.166039</ele>
        <time>2024-06-08T07:31:07.000Z</time>
      </trkpt>
      <trkpt lat="38.822401" lon="-91.074065">
        <ele>245.660046</ele>
        <time>2024-06-08T07:31:23.000Z</time>
      </trkpt>
      <trkpt lat="38.822916" lon="-91.074057">
        <ele>245.764871</ele>
        <time>2024-06-08T07:31:29.000Z</time>
      </trkpt>
      <trkpt lat="38.823255" lon="-91.07405">
        <ele>245.748735</ele>
        <time>2024-06-08T07:31:33.000Z</time>
      </trkpt>
      <trkpt lat="38.822916" lon="-91.074066">
        <ele>245.732611</ele>
        <time>2024-06-08T07:31:37.000Z</time>
      </trkpt>
      <trkpt lat="38.822401" lon="-91.074054">
        <ele>245.707449</ele>
        <time>2024-06-08T07:31:43.000Z</time>
      </trkpt>
      <trkpt lat="38.820951" lon="-91.074059">
        <ele>244.875915</ele>
        <time>2024-06-08T07:31:59.000Z</time>
      </trkpt>
      <trkpt lat="38.82012" lon="-91.074096">
        <ele>244.144494</ele>
        <time>2024-06-08T07:32:08.000Z</time>
      </trkpt>
      <trkpt lat="38.819363" lon="-91.074175">
        <ele>242.32509</ele>
        <time>2024-06-08T07:32:16.000Z</time>
      </trkpt>
      <trkpt lat="38.817895" lon="-91.07426">
        <ele>239.306673</ele>
        <time>2024-06-08T07:32:32.000Z</time>
      </trkpt>
      <trkpt lat="38.817476" lon="-91.074246">
        <ele>238.9442</ele>
        <time>2024-06-08T07:32:37.000Z</time>
      </trkpt>
      <trkpt lat="38.815933" lon="-91.074276">
        <ele>239.082677</ele>
        <time>2024-06-08T07:32:54.000Z</time>
      </trkpt>
      <trkpt lat="38.815402" lon="-91.074279">
        <ele>240.061313</ele>
        <time>2024-06-08T07:33:00.000Z</time>
      </trkpt>
      <trkpt lat="38.81429" lon="-91.074291">
        <ele>241.923914</ele>
        <time>2024-06-08T07:33:12.000Z</time>
      </trkpt>
      <trkpt lat="38.807279" lon="-91.074444">
        <ele>250.734127</ele>
        <time>2024-06-08T07:34:30.000Z</time>
      </trkpt>
      <trkpt lat="38.80662" lon="-91.07455">
        <ele>250.515989</ele>
        <time>2024-06-08T07:34:37.000Z</time>
      </trkpt>
      <trkpt lat="38.80549" lon="-91.074603">
        <ele>250.135611</ele>
        <time>2024-06-08T07:34:50.000Z</time>
      </trkpt>
      <trkpt lat="38.80493" lon="-91.074605">
        <ele>249.891061</ele>
        <time>2024-06-08T07:34:56.000Z</time>
      </trkpt>
      <trkpt lat="38.804014" lon="-91.074619">
        <ele>249.506255</ele>
        <time>2024-06-08T07:35:06.000Z</time>
      </trkpt>
      <trkpt lat="38.803913" lon="-91.074611">
        <ele>249.455772</ele>
        <time>2024-06-08T07:35:07.000Z</time>
      </trkpt>
      <trkpt lat="38.803359" lon="-91.074627">
        <ele>250.11712</ele>
        <time>2024-06-08T07:35:13.000Z</time>
      </trkpt>
      <trkpt lat="38.803013" lon="-91.074648">
        <ele>250.57933</ele>
        <time>2024-06-08T07:35:17.000Z</time>
      </trkpt>
      <trkpt lat="38.802106" lon="-91.074663">
        <ele>251.725861</ele>
        <time>2024-06-08T07:35:27.000Z</time>
      </trkpt>
      <trkpt lat="38.801297" lon="-91.074693">
        <ele>253.033464</ele>
        <time>2024-06-08T07:35:36.000Z</time>
      </trkpt>
      <trkpt lat="38.800724" lon="-91.074718">
        <ele>253.949526</ele>
        <time>2024-06-08T07:35:42.000Z</time>
      </trkpt>
      <trkpt lat="38.799912" lon="-91.074721">
        <ele>254.737131</ele>
        <time>2024-06-08T07:35:51.000Z</time>
      </trkpt>
      <trkpt lat="38.799325" lon="-91.074727">
        <ele>254.888048</ele>
        <time>2024-06-08T07:35:58.000Z</time>
      </trkpt>
      <trkpt lat="38.799254" lon="-91.074718">
        <ele>254.906809</ele>
        <time>2024-06-08T07:35:59.000Z</time>
      </trkpt>
      <trkpt lat="38.798411" lon="-91.074762">
        <ele>255.10176</ele>
        <time>2024-06-08T07:36:08.000Z</time>
      </trkpt>
      <trkpt lat="38.798325" lon="-91.074754">
        <ele>255.103556</ele>
        <time>2024-06-08T07:36:09.000Z</time>
      </trkpt>
      <trkpt lat="38.798159" lon="-91.074757">
        <ele>255.106834</ele>
        <time>2024-06-08T07:36:11.000Z</time>
      </trkpt>
      <trkpt lat="38.797509" lon="-91.074761">
        <ele>255.120541</ele>
        <time>2024-06-08T07:36:18.000Z</time>
      </trkpt>
      <trkpt lat="38.797435" lon="-91.074766">
        <ele>255.122067</ele>
        <time>2024-06-08T07:36:19.000Z</time>
      </trkpt>
      <trkpt lat="38.796314" lon="-91.074808">
        <ele>255.045475</ele>
        <time>2024-06-08T07:36:31.000Z</time>
      </trkpt>
      <trkpt lat="38.796101" lon="-91.074775">
        <ele>254.992943</ele>
        <time>2024-06-08T07:36:33.000Z</time>
      </trkpt>
      <trkpt lat="38.795734" lon="-91.074658">
        <ele>254.906713</ele>
        <time>2024-06-08T07:36:37.000Z</time>
      </trkpt>
      <trkpt lat="38.795627" lon="-91.074596">
        <ele>254.877194</ele>
        <time>2024-06-08T07:36:38.000Z</time>
      </trkpt>
      <trkpt lat="38.795492" lon="-91.07454">
        <ele>254.843759</ele>
        <time>2024-06-08T07:36:40.000Z</time>
      </trkpt>
      <trkpt lat="38.795208" lon="-91.074382">
        <ele>254.769785</ele>
        <time>2024-06-08T07:36:43.000Z</time>
      </trkpt>
      <trkpt lat="38.794632" lon="-91.074036">
        <ele>254.372648</ele>
        <time>2024-06-08T07:36:50.000Z</time>
      </trkpt>
      <trkpt lat="38.794313" lon="-91.073873">
        <ele>254.06452</ele>
        <time>2024-06-08T07:36:54.000Z</time>
      </trkpt>
      <trkpt lat="38.793499" lon="-91.07339">
        <ele>253.273868</ele>
        <time>2024-06-08T07:37:04.000Z</time>
      </trkpt>
      <trkpt lat="38.793052" lon="-91.073115">
        <ele>252.725426</ele>
        <time>2024-06-08T07:37:10.000Z</time>
      </trkpt>
      <trkpt lat="38.792591" lon="-91.072848">
        <ele>252.133494</ele>
        <time>2024-06-08T07:37:16.000Z</time>
      </trkpt>
      <trkpt lat="38.791916" lon="-91.072452">
        <ele>251.252609</ele>
        <time>2024-06-08T07:37:24.000Z</time>
      </trkpt>
      <trkpt lat="38.79079" lon="-91.071772">
        <ele>250.146745</ele>
        <time>2024-06-08T07:37:38.000Z</time>
      </trkpt>
      <trkpt lat="38.788862" lon="-91.070607">
        <ele>248.650118</ele>
        <time>2024-06-08T07:38:02.000Z</time>
      </trkpt>
      <trkpt lat="38.788312" lon="-91.070281">
        <ele>248.160986</ele>
        <time>2024-06-08T07:38:09.000Z</time>
      </trkpt>
      <trkpt lat="38.788021" lon="-91.069863">
        <ele>247.581351</ele>
        <time>2024-06-08T07:38:14.000Z</time>
      </trkpt>
      <trkpt lat="38.787956" lon="-91.069738">
        <ele>247.432203</ele>
        <time>2024-06-08T07:38:15.000Z</time>
      </trkpt>
      <trkpt lat="38.787903" lon="-91.069574">
        <ele>247.259307</ele>
        <time>2024-06-08T07:38:17.000Z</time>
      </trkpt>
      <trkpt lat="38.78785" lon="-91.068774">
        <ele>246.443048</ele>
        <time>2024-06-08T07:38:24.000Z</time>
      </trkpt>
      <trkpt lat="38.787755" lon="-91.068418">
        <ele>246.049934</ele>
        <time>2024-06-08T07:38:27.000Z</time>
      </trkpt>
      <trkpt lat="38.78761" lon="-91.068107">
        <ele>245.682323</ele>
        <time>2024-06-08T07:38:30.000Z</time>
      </trkpt>
      <trkpt lat="38.787442" lon="-91.067924">
        <ele>245.38754</ele>
        <time>2024-06-08T07:38:32.000Z</time>
      </trkpt>
      <trkpt lat="38.786921" lon="-91.067502">
        <ele>244.545726</ele>
        <time>2024-06-08T07:38:39.000Z</time>
      </trkpt>
      <trkpt lat="38.7867" lon="-91.067379">
        <ele>244.227842</ele>
        <time>2024-06-08T07:38:42.000Z</time>
      </trkpt>
      <trkpt lat="38.786446" lon="-91.067288">
        <ele>243.876946</ele>
        <time>2024-06-08T07:38:45.000Z</time>
      </trkpt>
      <trkpt lat="38.785979" lon="-91.067228">
        <ele>243.201989</ele>
        <time>2024-06-08T07:38:50.000Z</time>
      </trkpt>
      <trkpt lat="38.784576" lon="-91.067408">
        <ele>241.057988</ele>
        <time>2024-06-08T07:39:06.000Z</time>
      </trkpt>
      <trkpt lat="38.784288" lon="-91.067443">
        <ele>240.624091</ele>
        <time>2024-06-08T07:39:09.000Z</time>
      </trkpt>
      <trkpt lat="38.784028" lon="-91.067474">
        <ele>240.262827</ele>
        <time>2024-06-08T07:39:12.000Z</time>
      </trkpt>
      <trkpt lat="38.782862" lon="-91.067614">
        <ele>238.589991</ele>
        <time>2024-06-08T07:39:25.000Z</time>
      </trkpt>
      <trkpt lat="38.782657" lon="-91.067587">
        <ele>238.293915</ele>
        <time>2024-06-08T07:39:27.000Z</time>
      </trkpt>
      <trkpt lat="38.782288" lon="-91.067502">
        <ele>238.15791</ele>
        <time>2024-06-08T07:39:31.000Z</time>
      </trkpt>
      <trkpt lat="38.782086" lon="-91.067363">
        <ele>238.075862</ele>
        <time>2024-06-08T07:39:34.000Z</time>
      </trkpt>
      <trkpt lat="38.78176" lon="-91.067029">
        <ele>237.928846</ele>
        <time>2024-06-08T07:39:39.000Z</time>
      </trkpt>
      <trkpt lat="38.781596" lon="-91.066898">
        <ele>237.859739</ele>
        <time>2024-06-08T07:39:41.000Z</time>
      </trkpt>
      <trkpt lat="38.781502" lon="-91.066848">
        <ele>237.826334</ele>
        <time>2024-06-08T07:39:42.000Z</time>
      </trkpt>
      <trkpt lat="38.781201" lon="-91.066746">
        <ele>237.716804</ele>
        <time>2024-06-08T07:39:45.000Z</time>
      </trkpt>
      <trkpt lat="38.780809" lon="-91.066754">
        <ele>237.741301</ele>
        <time>2024-06-08T07:39:49.000Z</time>
      </trkpt>
      <trkpt lat="38.780402" lon="-91.066901">
        <ele>237.887468</ele>
        <time>2024-06-08T07:39:54.000Z</time>
      </trkpt>
      <trkpt lat="38.779933" lon="-91.066865">
        <ele>238.05952</ele>
        <time>2024-06-08T07:39:59.000Z</time>
      </trkpt>
      <trkpt lat="38.779679" lon="-91.066777">
        <ele>238.153517</ele>
        <time>2024-06-08T07:40:02.000Z</time>
      </trkpt>
      <trkpt lat="38.779327" lon="-91.066546">
        <ele>238.293932</ele>
        <time>2024-06-08T07:40:06.000Z</time>
      </trkpt>
      <trkpt lat="38.779118" lon="-91.066346">
        <ele>238.104048</ele>
        <time>2024-06-08T07:40:09.000Z</time>
      </trkpt>
      <trkpt lat="38.778766" lon="-91.065983">
        <ele>237.726467</ele>
        <time>2024-06-08T07:40:14.000Z</time>
      </trkpt>
      <trkpt lat="38.778325" lon="-91.065403">
        <ele>237.200006</ele>
        <time>2024-06-08T07:40:21.000Z</time>
      </trkpt>
      <trkpt lat="38.778029" lon="-91.065193">
        <ele>236.918438</ele>
        <time>2024-06-08T07:40:25.000Z</time>
      </trkpt>
      <trkpt lat="38.777827" lon="-91.065085">
        <ele>236.666999</ele>
        <time>2024-06-08T07:40:27.000Z</time>
      </trkpt>
      <trkpt lat="38.777478" lon="-91.06513">
        <ele>236.136552</ele>
        <time>2024-06-08T07:40:31.000Z</time>
      </trkpt>
      <trkpt lat="38.777252" lon="-91.065199">
        <ele>235.781594</ele>
        <time>2024-06-08T07:40:34.000Z</time>
      </trkpt>
      <trkpt lat="38.776204" lon="-91.065716">
        <ele>234.053766</ele>
        <time>2024-06-08T07:40:46.000Z</time>
      </trkpt>
      <trkpt lat="38.775909" lon="-91.06576">
        <ele>233.908295</ele>
        <time>2024-06-08T07:40:49.000Z</time>
      </trkpt>
      <trkpt lat="38.775614" lon="-91.065755">
        <ele>233.774786</ele>
        <time>2024-06-08T07:40:52.000Z</time>
      </trkpt>
      <trkpt lat="38.775096" lon="-91.065582">
        <ele>233.536474</ele>
        <time>2024-06-08T07:40:58.000Z</time>
      </trkpt>
      <trkpt lat="38.774535" lon="-91.065202">
        <ele>233.256531</ele>
        <time>2024-06-08T07:41:05.000Z</time>
      </trkpt>
      <trkpt lat="38.774326" lon="-91.064959">
        <ele>233.16913</ele>
        <time>2024-06-08T07:41:08.000Z</time>
      </trkpt>
      <trkpt lat="38.774051" lon="-91.064453">
        <ele>233.032631</ele>
        <time>2024-06-08T07:41:13.000Z</time>
      </trkpt>
      <trkpt lat="38.773852" lon="-91.064203">
        <ele>232.950059</ele>
        <time>2024-06-08T07:41:16.000Z</time>
      </trkpt>
      <trkpt lat="38.773447" lon="-91.063973">
        <ele>232.825939</ele>
        <time>2024-06-08T07:41:21.000Z</time>
      </trkpt>
      <trkpt lat="38.773264" lon="-91.063929">
        <ele>232.77058</ele>
        <time>2024-06-08T07:41:23.000Z</time>
      </trkpt>
      <trkpt lat="38.772932" lon="-91.06395">
        <ele>232.862723</ele>
        <time>2024-06-08T07:41:27.000Z</time>
      </trkpt>
      <trkpt lat="38.772356" lon="-91.064092">
        <ele>233.383296</ele>
        <time>2024-06-08T07:41:34.000Z</time>
      </trkpt>
      <trkpt lat="38.772071" lon="-91.064106">
        <ele>233.635117</ele>
        <time>2024-06-08T07:41:37.000Z</time>
      </trkpt>
      <trkpt lat="38.771795" lon="-91.06407">
        <ele>233.888323</ele>
        <time>2024-06-08T07:41:40.000Z</time>
      </trkpt>
      <trkpt lat="38.771411" lon="-91.063866">
        <ele>234.260793</ele>
        <time>2024-06-08T07:41:45.000Z</time>
      </trkpt>
      <trkpt lat="38.771233" lon="-91.063782">
        <ele>234.472601</ele>
        <time>2024-06-08T07:41:47.000Z</time>
      </trkpt>
      <trkpt lat="38.771114" lon="-91.063753">
        <ele>234.619247</ele>
        <time>2024-06-08T07:41:48.000Z</time>
      </trkpt>
      <trkpt lat="38.770604" lon="-91.063717">
        <ele>235.251251</ele>
        <time>2024-06-08T07:41:54.000Z</time>
      </trkpt>
      <trkpt lat="38.770386" lon="-91.063742">
        <ele>235.530581</ele>
        <time>2024-06-08T07:41:56.000Z</time>
      </trkpt>
      <trkpt lat="38.770173" lon="-91.063834">
        <ele>235.799373</ele>
        <time>2024-06-08T07:41:58.000Z</time>
      </trkpt>
      <trkpt lat="38.769956" lon="-91.063966">
        <ele>236.102415</ele>
        <time>2024-06-08T07:42:01.000Z</time>
      </trkpt>
      <trkpt lat="38.76894" lon="-91.064711">
        <ele>236.745364</ele>
        <time>2024-06-08T07:42:14.000Z</time>
      </trkpt>
      <trkpt lat="38.768687" lon="-91.064804">
        <ele>236.804579</ele>
        <time>2024-06-08T07:42:17.000Z</time>
      </trkpt>
      <trkpt lat="38.768153" lon="-91.064693">
        <ele>236.920168</ele>
        <time>2024-06-08T07:42:23.000Z</time>
      </trkpt>
      <trkpt lat="38.767413" lon="-91.06439">
        <ele>236.360585</ele>
        <time>2024-06-08T07:42:32.000Z</time>
      </trkpt>
      <trkpt lat="38.767023" lon="-91.064297">
        <ele>235.949231</ele>
        <time>2024-06-08T07:42:36.000Z</time>
      </trkpt>
      <trkpt lat="38.766358" lon="-91.064344">
        <ele>235.266723</ele>
        <time>2024-06-08T07:42:43.000Z</time>
      </trkpt>
      <trkpt lat="38.765951" lon="-91.064432">
        <ele>234.851365</ele>
        <time>2024-06-08T07:42:48.000Z</time>
      </trkpt>
      <trkpt lat="38.765731" lon="-91.064543">
        <ele>234.60466</ele>
        <time>2024-06-08T07:42:51.000Z</time>
      </trkpt>
      <trkpt lat="38.765561" lon="-91.064699">
        <ele>234.401174</ele>
        <time>2024-06-08T07:42:53.000Z</time>
      </trkpt>
      <trkpt lat="38.7654" lon="-91.064873">
        <ele>234.196526</ele>
        <time>2024-06-08T07:42:55.000Z</time>
      </trkpt>
      <trkpt lat="38.764779" lon="-91.065687">
        <ele>233.319896</ele>
        <time>2024-06-08T07:43:05.000Z</time>
      </trkpt>
      <trkpt lat="38.764389" lon="-91.066176">
        <ele>233.434984</ele>
        <time>2024-06-08T07:43:11.000Z</time>
      </trkpt>
      <trkpt lat="38.764192" lon="-91.066336">
        <ele>233.482363</ele>
        <time>2024-06-08T07:43:14.000Z</time>
      </trkpt>
      <trkpt lat="38.763736" lon="-91.066586">
        <ele>233.586145</ele>
        <time>2024-06-08T07:43:20.000Z</time>
      </trkpt>
      <trkpt lat="38.763261" lon="-91.066724">
        <ele>233.687444</ele>
        <time>2024-06-08T07:43:25.000Z</time>
      </trkpt>
      <trkpt lat="38.762836" lon="-91.066721">
        <ele>233.872703</ele>
        <time>2024-06-08T07:43:30.000Z</time>
      </trkpt>
      <trkpt lat="38.762368" lon="-91.066591">
        <ele>234.095234</ele>
        <time>2024-06-08T07:43:35.000Z</time>
      </trkpt>
      <trkpt lat="38.761977" lon="-91.066425">
        <ele>234.281627</ele>
        <time>2024-06-08T07:43:40.000Z</time>
      </trkpt>
      <trkpt lat="38.760872" lon="-91.066247">
        <ele>234.388658</ele>
        <time>2024-06-08T07:43:52.000Z</time>
      </trkpt>
      <trkpt lat="38.760068" lon="-91.066057">
        <ele>234.215818</ele>
        <time>2024-06-08T07:44:01.000Z</time>
      </trkpt>
      <trkpt lat="38.760083" lon="-91.06616">
        <ele>234.198802</ele>
        <time>2024-06-08T07:44:02.000Z</time>
      </trkpt>
      <trkpt lat="38.760028" lon="-91.066245">
        <ele>234.179872</ele>
        <time>2024-06-08T07:44:03.000Z</time>
      </trkpt>
      <trkpt lat="38.759921" lon="-91.066358">
        <ele>234.152693</ele>
        <time>2024-06-08T07:44:05.000Z</time>
      </trkpt>
      <trkpt lat="38.759806" lon="-91.066431">
        <ele>234.082096</ele>
        <time>2024-06-08T07:44:06.000Z</time>
      </trkpt>
      <trkpt lat="38.759644" lon="-91.06646">
        <ele>233.884102</ele>
        <time>2024-06-08T07:44:08.000Z</time>
      </trkpt>
      <trkpt lat="38.759165" lon="-91.066654">
        <ele>233.291769</ele>
        <time>2024-06-08T07:44:14.000Z</time>
      </trkpt>
      <trkpt lat="38.75896" lon="-91.066789">
        <ele>233.018634</ele>
        <time>2024-06-08T07:44:17.000Z</time>
      </trkpt>
      <trkpt lat="38.758874" lon="-91.067113">
        <ele>232.711247</ele>
        <time>2024-06-08T07:44:20.000Z</time>
      </trkpt>
      <trkpt lat="38.758825" lon="-91.067469">
        <ele>232.384674</ele>
        <time>2024-06-08T07:44:23.000Z</time>
      </trkpt>
      <trkpt lat="38.758782" lon="-91.06805">
        <ele>231.780439</ele>
        <time>2024-06-08T07:44:28.000Z</time>
      </trkpt>
      <trkpt lat="38.758971" lon="-91.068582">
        <ele>231.032654</ele>
        <time>2024-06-08T07:44:33.000Z</time>
      </trkpt>
      <trkpt lat="38.7591" lon="-91.069057">
        <ele>230.409938</ele>
        <time>2024-06-08T07:44:37.000Z</time>
      </trkpt>
      <trkpt lat="38.759106" lon="-91.069312">
        <ele>230.080435</ele>
        <time>2024-06-08T07:44:39.000Z</time>
      </trkpt>
      <trkpt lat="38.759076" lon="-91.06994">
        <ele>229.28804</ele>
        <time>2024-06-08T07:44:44.000Z</time>
      </trkpt>
      <trkpt lat="38.758022" lon="-91.070404">
        <ele>227.32828</ele>
        <time>2024-06-08T07:44:56.000Z</time>
      </trkpt>
      <trkpt lat="38.757679" lon="-91.070523">
        <ele>226.690046</ele>
        <time>2024-06-08T07:45:00.000Z</time>
      </trkpt>
      <trkpt lat="38.757206" lon="-91.070557">
        <ele>225.858577</ele>
        <time>2024-06-08T07:45:05.000Z</time>
      </trkpt>
      <trkpt lat="38.757009" lon="-91.070609">
        <ele>225.523318</ele>
        <time>2024-06-08T07:45:07.000Z</time>
      </trkpt>
      <trkpt lat="38.756749" lon="-91.070761">
        <ele>225.050343</ele>
        <time>2024-06-08T07:45:10.000Z</time>
      </trkpt>
      <trkpt lat="38.756606" lon="-91.070886">
        <ele>224.75942</ele>
        <time>2024-06-08T07:45:12.000Z</time>
      </trkpt>
      <trkpt lat="38.75649" lon="-91.071128">
        <ele>224.391913</ele>
        <time>2024-06-08T07:45:14.000Z</time>
      </trkpt>
      <trkpt lat="38.756184" lon="-91.071902">
        <ele>223.270412</ele>
        <time>2024-06-08T07:45:22.000Z</time>
      </trkpt>
      <trkpt lat="38.756134" lon="-91.071974">
        <ele>223.149382</ele>
        <time>2024-06-08T07:45:23.000Z</time>
      </trkpt>
      <trkpt lat="38.75597" lon="-91.072025">
        <ele>222.891952</ele>
        <time>2024-06-08T07:45:25.000Z</time>
      </trkpt>
      <trkpt lat="38.755665" lon="-91.07195">
        <ele>222.450416</ele>
        <time>2024-06-08T07:45:28.000Z</time>
      </trkpt>
      <trkpt lat="38.755542" lon="-91.07197">
        <ele>222.294216</ele>
        <time>2024-06-08T07:45:29.000Z</time>
      </trkpt>
      <trkpt lat="38.75502" lon="-91.072302">
        <ele>221.495943</ele>
        <time>2024-06-08T07:45:35.000Z</time>
      </trkpt>
      <trkpt lat="38.7547" lon="-91.072489">
        <ele>221.013205</ele>
        <time>2024-06-08T07:45:39.000Z</time>
      </trkpt>
      <trkpt lat="38.754192" lon="-91.072687">
        <ele>220.067951</ele>
        <time>2024-06-08T07:45:45.000Z</time>
      </trkpt>
      <trkpt lat="38.754087" lon="-91.072758">
        <ele>219.652216</ele>
        <time>2024-06-08T07:45:46.000Z</time>
      </trkpt>
      <trkpt lat="38.753958" lon="-91.072989">
        <ele>218.952374</ele>
        <time>2024-06-08T07:45:48.000Z</time>
      </trkpt>
      <trkpt lat="38.753868" lon="-91.073366">
        <ele>217.928417</ele>
        <time>2024-06-08T07:45:51.000Z</time>
      </trkpt>
      <trkpt lat="38.753625" lon="-91.073462">
        <ele>217.088225</ele>
        <time>2024-06-08T07:45:54.000Z</time>
      </trkpt>
      <trkpt lat="38.753488" lon="-91.073494">
        <ele>216.627335</ele>
        <time>2024-06-08T07:45:56.000Z</time>
      </trkpt>
      <trkpt lat="38.753158" lon="-91.073649">
        <ele>215.499833</ele>
        <time>2024-06-08T07:46:00.000Z</time>
      </trkpt>
      <trkpt lat="38.7523" lon="-91.073861">
        <ele>212.761666</ele>
        <time>2024-06-08T07:46:10.000Z</time>
      </trkpt>
      <trkpt lat="38.752173" lon="-91.073838">
        <ele>212.346892</ele>
        <time>2024-06-08T07:46:11.000Z</time>
      </trkpt>
      <trkpt lat="38.75194" lon="-91.073803">
        <ele>211.621534</ele>
        <time>2024-06-08T07:46:14.000Z</time>
      </trkpt>
      <trkpt lat="38.751599" lon="-91.073686">
        <ele>210.514981</ele>
        <time>2024-06-08T07:46:18.000Z</time>
      </trkpt>
      <trkpt lat="38.751336" lon="-91.073706">
        <ele>209.641744</ele>
        <time>2024-06-08T07:46:21.000Z</time>
      </trkpt>
      <trkpt lat="38.751074" lon="-91.073861">
        <ele>209.009554</ele>
        <time>2024-06-08T07:46:24.000Z</time>
      </trkpt>
      <trkpt lat="38.750564" lon="-91.07426">
        <ele>209.237814</ele>
        <time>2024-06-08T07:46:31.000Z</time>
      </trkpt>
      <trkpt lat="38.750296" lon="-91.074492">
        <ele>209.365737</ele>
        <time>2024-06-08T07:46:35.000Z</time>
      </trkpt>
      <trkpt lat="38.750193" lon="-91.074615">
        <ele>209.417326</ele>
        <time>2024-06-08T07:46:37.000Z</time>
      </trkpt>
      <trkpt lat="38.750064" lon="-91.074922">
        <ele>209.526331</ele>
        <time>2024-06-08T07:46:40.000Z</time>
      </trkpt>
      <trkpt lat="38.749989" lon="-91.075183">
        <ele>209.609028</ele>
        <time>2024-06-08T07:46:42.000Z</time>
      </trkpt>
      <trkpt lat="38.749902" lon="-91.075314">
        <ele>209.663324</ele>
        <time>2024-06-08T07:46:43.000Z</time>
      </trkpt>
      <trkpt lat="38.749736" lon="-91.075527">
        <ele>209.700017</ele>
        <time>2024-06-08T07:46:46.000Z</time>
      </trkpt>
      <trkpt lat="38.749573" lon="-91.075645">
        <ele>209.720839</ele>
        <time>2024-06-08T07:46:48.000Z</time>
      </trkpt>
      <trkpt lat="38.749267" lon="-91.075806">
        <ele>209.758837</ele>
        <time>2024-06-08T07:46:52.000Z</time>
      </trkpt>
      <trkpt lat="38.748814" lon="-91.076153">
        <ele>209.817435</ele>
        <time>2024-06-08T07:46:58.000Z</time>
      </trkpt>
      <trkpt lat="38.748713" lon="-91.076406">
        <ele>209.843139</ele>
        <time>2024-06-08T07:47:00.000Z</time>
      </trkpt>
      <trkpt lat="38.748747" lon="-91.076796">
        <ele>209.876928</ele>
        <time>2024-06-08T07:47:03.000Z</time>
      </trkpt>
      <trkpt lat="38.748874" lon="-91.077373">
        <ele>208.485947</ele>
        <time>2024-06-08T07:47:08.000Z</time>
      </trkpt>
      <trkpt lat="38.748866" lon="-91.07755">
        <ele>208.068793</ele>
        <time>2024-06-08T07:47:10.000Z</time>
      </trkpt>
      <trkpt lat="38.748775" lon="-91.078005">
        <ele>206.91678</ele>
        <time>2024-06-08T07:47:14.000Z</time>
      </trkpt>
      <trkpt lat="38.748577" lon="-91.078267">
        <ele>206.032504</ele>
        <time>2024-06-08T07:47:17.000Z</time>
      </trkpt>
      <trkpt lat="38.748535" lon="-91.07858">
        <ele>205.242968</ele>
        <time>2024-06-08T07:47:20.000Z</time>
      </trkpt>
      <trkpt lat="38.748521" lon="-91.07886">
        <ele>204.588988</ele>
        <time>2024-06-08T07:47:22.000Z</time>
      </trkpt>
      <trkpt lat="38.748912" lon="-91.080954">
        <ele>199.468976</ele>
        <time>2024-06-08T07:47:41.000Z</time>
      </trkpt>
      <trkpt lat="38.749405" lon="-91.083373">
        <ele>196.345111723</ele>
        <time>2024-06-08T07:48:03.000Z</time>
      </trkpt>
      <trkpt lat="38.74942" lon="-91.083459">
        <ele>196.235006741</ele>
        <time>2024-06-08T07:48:04.000Z</time>
      </trkpt>
      <trkpt lat="38.749498" lon="-91.083806">
        <ele>195.783807326</ele>
        <time>2024-06-08T07:48:07.000Z</time>
      </trkpt>
    </trkseg>
  </trk>
</gpx>

<!--
Performance optimized by W3 Total Cache. Learn more: https://www.boldgrid.com/w3-total-cache/?utm_source=w3tc&utm_medium=footer_comment&utm_campaign=free_plugin

Page Caching using Disk: Enhanced{w3tc_pagecache_reject_reason} 

Served from: www.aquabike.world @ 2026-05-10 18:49:32 by W3 Total Cache
-->